sensor_id;sensor_type;location;lat;lon;timestamp;P1;durP1;ratioP1;P2;durP2;ratioP2
177;SDS011;77;48.792;9.032;2022-09-09T00:01:57;6.67;;;2.77;;
177;SDS011;77;48.792;9.032;2022-09-09T00:04:26;2.93;;;2.20;;
177;SDS011;77;48.792;9.032;2022-09-09T00:06:55;4.30;;;2.40;;
177;SDS011;77;48.792;9.032;2022-09-09T00:09:24;11.33;;;2.60;;
177;SDS011;77;48.792;9.032;2022-09-09T00:11:51;5.00;;;2.47;;
177;SDS011;77;48.792;9.032;2022-09-09T00:14:18;4.83;;;2.30;;
177;SDS011;77;48.792;9.032;2022-09-09T00:16:47;12.83;;;2.67;;
177;SDS011;77;48.792;9.032;2022-09-09T00:19:16;10.00;;;2.40;;
177;SDS011;77;48.792;9.032;2022-09-09T00:21:46;4.13;;;2.27;;
177;SDS011;77;48.792;9.032;2022-09-09T00:24:15;9.40;;;2.43;;
177;SDS011;77;48.792;9.032;2022-09-09T00:26:44;3.70;;;2.27;;
177;SDS011;77;48.792;9.032;2022-09-09T00:29:13;8.20;;;2.40;;
177;SDS011;77;48.792;9.032;2022-09-09T00:31:39;6.10;;;2.30;;
177;SDS011;77;48.792;9.032;2022-09-09T00:34:08;4.80;;;2.50;;
177;SDS011;77;48.792;9.032;2022-09-09T00:36:35;4.00;;;2.20;;
177;SDS011;77;48.792;9.032;2022-09-09T00:39:01;5.00;;;2.53;;
177;SDS011;77;48.792;9.032;2022-09-09T00:41:29;7.13;;;2.40;;
177;SDS011;77;48.792;9.032;2022-09-09T00:44:00;5.10;;;2.30;;
177;SDS011;77;48.792;9.032;2022-09-09T00:46:30;7.00;;;2.67;;
177;SDS011;77;48.792;9.032;2022-09-09T00:49:00;4.17;;;2.27;;
177;SDS011;77;48.792;9.032;2022-09-09T00:51:30;3.90;;;2.20;;
177;SDS011;77;48.792;9.032;2022-09-09T00:54:07;3.53;;;2.20;;
177;SDS011;77;48.792;9.032;2022-09-09T00:56:37;7.73;;;2.20;;
177;SDS011;77;48.792;9.032;2022-09-09T00:59:10;4.20;;;2.20;;
177;SDS011;77;48.792;9.032;2022-09-09T01:01:39;4.67;;;2.43;;
177;SDS011;77;48.792;9.032;2022-09-09T01:04:05;3.97;;;2.23;;
177;SDS011;77;48.792;9.032;2022-09-09T01:06:32;6.73;;;2.53;;
177;SDS011;77;48.792;9.032;2022-09-09T01:09:08;5.13;;;2.30;;
177;SDS011;77;48.792;9.032;2022-09-09T01:11:38;6.07;;;2.37;;
177;SDS011;77;48.792;9.032;2022-09-09T01:14:13;3.57;;;2.30;;
177;SDS011;77;48.792;9.032;2022-09-09T01:16:41;4.33;;;2.40;;
177;SDS011;77;48.792;9.032;2022-09-09T01:19:07;5.83;;;2.50;;
177;SDS011;77;48.792;9.032;2022-09-09T01:21:38;5.27;;;2.30;;
177;SDS011;77;48.792;9.032;2022-09-09T01:24:14;4.20;;;1.90;;
177;SDS011;77;48.792;9.032;2022-09-09T01:26:42;4.17;;;2.40;;
177;SDS011;77;48.792;9.032;2022-09-09T01:29:08;4.97;;;2.40;;
177;SDS011;77;48.792;9.032;2022-09-09T01:31:35;4.20;;;2.40;;
177;SDS011;77;48.792;9.032;2022-09-09T01:34:01;3.87;;;2.37;;
177;SDS011;77;48.792;9.032;2022-09-09T01:36:29;2.90;;;2.00;;
177;SDS011;77;48.792;9.032;2022-09-09T01:38:57;4.67;;;2.17;;
177;SDS011;77;48.792;9.032;2022-09-09T01:41:22;3.83;;;2.10;;
177;SDS011;77;48.792;9.032;2022-09-09T01:43:49;3.83;;;2.23;;
177;SDS011;77;48.792;9.032;2022-09-09T01:46:14;5.03;;;2.20;;
177;SDS011;77;48.792;9.032;2022-09-09T01:48:41;4.03;;;2.40;;
177;SDS011;77;48.792;9.032;2022-09-09T01:51:07;7.90;;;2.43;;
177;SDS011;77;48.792;9.032;2022-09-09T01:53:32;5.90;;;2.40;;
177;SDS011;77;48.792;9.032;2022-09-09T01:56:04;9.57;;;2.43;;
177;SDS011;77;48.792;9.032;2022-09-09T01:58:37;7.90;;;2.50;;
177;SDS011;77;48.792;9.032;2022-09-09T02:01:12;6.37;;;2.40;;
177;SDS011;77;48.792;9.032;2022-09-09T02:03:41;4.53;;;2.30;;
177;SDS011;77;48.792;9.032;2022-09-09T02:06:11;4.67;;;2.23;;
177;SDS011;77;48.792;9.032;2022-09-09T02:08:40;3.77;;;2.10;;
177;SDS011;77;48.792;9.032;2022-09-09T02:11:07;3.33;;;2.03;;
177;SDS011;77;48.792;9.032;2022-09-09T02:13:34;5.97;;;2.30;;
177;SDS011;77;48.792;9.032;2022-09-09T02:16:03;3.63;;;1.90;;
177;SDS011;77;48.792;9.032;2022-09-09T02:18:32;3.33;;;1.87;;
177;SDS011;77;48.792;9.032;2022-09-09T02:20:59;3.97;;;1.70;;
177;SDS011;77;48.792;9.032;2022-09-09T02:23:25;2.53;;;1.60;;
177;SDS011;77;48.792;9.032;2022-09-09T02:25:51;3.33;;;1.70;;
177;SDS011;77;48.792;9.032;2022-09-09T02:28:17;3.27;;;1.80;;
177;SDS011;77;48.792;9.032;2022-09-09T02:30:43;3.30;;;1.80;;
177;SDS011;77;48.792;9.032;2022-09-09T02:33:09;3.77;;;1.83;;
177;SDS011;77;48.792;9.032;2022-09-09T02:35:36;3.53;;;1.67;;
177;SDS011;77;48.792;9.032;2022-09-09T02:38:03;2.90;;;1.70;;
177;SDS011;77;48.792;9.032;2022-09-09T02:40:30;4.50;;;1.90;;
177;SDS011;77;48.792;9.032;2022-09-09T02:42:55;4.77;;;1.80;;
177;SDS011;77;48.792;9.032;2022-09-09T02:45:22;4.30;;;1.70;;
177;SDS011;77;48.792;9.032;2022-09-09T02:47:50;15.43;;;2.20;;
177;SDS011;77;48.792;9.032;2022-09-09T02:50:17;3.20;;;1.80;;
177;SDS011;77;48.792;9.032;2022-09-09T02:52:47;3.63;;;1.90;;
177;SDS011;77;48.792;9.032;2022-09-09T02:55:16;3.37;;;2.00;;
177;SDS011;77;48.792;9.032;2022-09-09T02:57:43;3.40;;;1.80;;
177;SDS011;77;48.792;9.032;2022-09-09T03:00:11;4.73;;;1.90;;
177;SDS011;77;48.792;9.032;2022-09-09T03:02:36;3.63;;;1.70;;
177;SDS011;77;48.792;9.032;2022-09-09T03:05:02;4.87;;;2.00;;
177;SDS011;77;48.792;9.032;2022-09-09T03:07:27;3.30;;;1.97;;
177;SDS011;77;48.792;9.032;2022-09-09T03:09:54;3.37;;;1.83;;
177;SDS011;77;48.792;9.032;2022-09-09T03:12:19;4.23;;;1.90;;
177;SDS011;77;48.792;9.032;2022-09-09T03:14:44;3.80;;;1.80;;
177;SDS011;77;48.792;9.032;2022-09-09T03:17:09;3.50;;;1.73;;
177;SDS011;77;48.792;9.032;2022-09-09T03:19:35;3.43;;;1.50;;
177;SDS011;77;48.792;9.032;2022-09-09T03:22:00;4.30;;;1.73;;
177;SDS011;77;48.792;9.032;2022-09-09T03:24:25;3.33;;;1.77;;
177;SDS011;77;48.792;9.032;2022-09-09T03:26:52;2.60;;;1.70;;
177;SDS011;77;48.792;9.032;2022-09-09T03:29:17;3.13;;;1.70;;
177;SDS011;77;48.792;9.032;2022-09-09T03:31:42;3.40;;;1.80;;
177;SDS011;77;48.792;9.032;2022-09-09T03:34:07;3.30;;;1.80;;
177;SDS011;77;48.792;9.032;2022-09-09T03:36:33;4.03;;;1.97;;
177;SDS011;77;48.792;9.032;2022-09-09T03:38:58;7.60;;;2.20;;
177;SDS011;77;48.792;9.032;2022-09-09T03:41:23;6.30;;;1.93;;
177;SDS011;77;48.792;9.032;2022-09-09T03:43:50;3.87;;;1.90;;
177;SDS011;77;48.792;9.032;2022-09-09T03:46:16;2.80;;;1.80;;
177;SDS011;77;48.792;9.032;2022-09-09T03:48:41;4.73;;;1.90;;
177;SDS011;77;48.792;9.032;2022-09-09T03:51:06;4.20;;;1.90;;
177;SDS011;77;48.792;9.032;2022-09-09T03:53:31;4.00;;;2.00;;
177;SDS011;77;48.792;9.032;2022-09-09T03:55:57;2.73;;;1.80;;
177;SDS011;77;48.792;9.032;2022-09-09T03:58:22;4.83;;;2.30;;
177;SDS011;77;48.792;9.032;2022-09-09T04:00:54;3.40;;;2.00;;
177;SDS011;77;48.792;9.032;2022-09-09T04:03:19;3.63;;;2.20;;
177;SDS011;77;48.792;9.032;2022-09-09T04:05:44;4.30;;;2.00;;
177;SDS011;77;48.792;9.032;2022-09-09T04:08:10;3.30;;;1.90;;
177;SDS011;77;48.792;9.032;2022-09-09T04:10:35;4.57;;;1.80;;
177;SDS011;77;48.792;9.032;2022-09-09T04:13:00;4.00;;;2.00;;
177;SDS011;77;48.792;9.032;2022-09-09T04:15:25;5.13;;;2.07;;
177;SDS011;77;48.792;9.032;2022-09-09T04:17:52;6.67;;;1.90;;
177;SDS011;77;48.792;9.032;2022-09-09T04:20:17;3.00;;;1.90;;
177;SDS011;77;48.792;9.032;2022-09-09T04:22:43;3.60;;;2.10;;
177;SDS011;77;48.792;9.032;2022-09-09T04:25:08;3.73;;;2.10;;
177;SDS011;77;48.792;9.032;2022-09-09T04:27:33;5.73;;;2.13;;
177;SDS011;77;48.792;9.032;2022-09-09T04:29:58;4.43;;;2.23;;
177;SDS011;77;48.792;9.032;2022-09-09T04:32:24;5.70;;;2.20;;
177;SDS011;77;48.792;9.032;2022-09-09T04:34:50;5.83;;;2.37;;
177;SDS011;77;48.792;9.032;2022-09-09T04:37:16;5.30;;;2.20;;
177;SDS011;77;48.792;9.032;2022-09-09T04:39:41;5.73;;;2.40;;
177;SDS011;77;48.792;9.032;2022-09-09T04:42:06;4.40;;;2.20;;
177;SDS011;77;48.792;9.032;2022-09-09T04:44:31;4.00;;;2.07;;
177;SDS011;77;48.792;9.032;2022-09-09T04:46:57;4.33;;;2.10;;
177;SDS011;77;48.792;9.032;2022-09-09T04:49:22;5.47;;;2.57;;
177;SDS011;77;48.792;9.032;2022-09-09T04:51:49;5.97;;;2.30;;
177;SDS011;77;48.792;9.032;2022-09-09T04:54:15;3.30;;;2.10;;
177;SDS011;77;48.792;9.032;2022-09-09T04:56:40;6.83;;;2.50;;
177;SDS011;77;48.792;9.032;2022-09-09T04:59:05;4.63;;;2.30;;
177;SDS011;77;48.792;9.032;2022-09-09T05:01:30;4.70;;;2.30;;
177;SDS011;77;48.792;9.032;2022-09-09T05:03:55;5.10;;;2.13;;
177;SDS011;77;48.792;9.032;2022-09-09T05:06:21;11.43;;;2.40;;
177;SDS011;77;48.792;9.032;2022-09-09T05:08:48;5.00;;;2.43;;
177;SDS011;77;48.792;9.032;2022-09-09T05:11:16;5.07;;;2.33;;
177;SDS011;77;48.792;9.032;2022-09-09T05:13:42;4.03;;;2.10;;
177;SDS011;77;48.792;9.032;2022-09-09T05:16:07;4.87;;;2.43;;
177;SDS011;77;48.792;9.032;2022-09-09T05:18:33;5.20;;;2.30;;
177;SDS011;77;48.792;9.032;2022-09-09T05:20:58;5.07;;;2.50;;
177;SDS011;77;48.792;9.032;2022-09-09T05:23:24;5.57;;;2.40;;
177;SDS011;77;48.792;9.032;2022-09-09T05:25:57;4.37;;;2.07;;
177;SDS011;77;48.792;9.032;2022-09-09T05:28:23;6.20;;;2.30;;
177;SDS011;77;48.792;9.032;2022-09-09T05:30:54;4.13;;;2.30;;
177;SDS011;77;48.792;9.032;2022-09-09T05:33:19;3.50;;;2.00;;
177;SDS011;77;48.792;9.032;2022-09-09T05:35:45;4.07;;;2.10;;
177;SDS011;77;48.792;9.032;2022-09-09T05:38:10;5.10;;;2.10;;
177;SDS011;77;48.792;9.032;2022-09-09T05:40:35;3.93;;;2.20;;
177;SDS011;77;48.792;9.032;2022-09-09T05:43:02;4.40;;;2.20;;
177;SDS011;77;48.792;9.032;2022-09-09T05:45:27;5.20;;;2.37;;
177;SDS011;77;48.792;9.032;2022-09-09T05:47:52;4.47;;;2.30;;
177;SDS011;77;48.792;9.032;2022-09-09T05:50:18;6.77;;;2.10;;
177;SDS011;77;48.792;9.032;2022-09-09T05:52:45;4.10;;;2.20;;
177;SDS011;77;48.792;9.032;2022-09-09T05:55:10;4.23;;;2.00;;
177;SDS011;77;48.792;9.032;2022-09-09T05:57:36;3.70;;;2.00;;
177;SDS011;77;48.792;9.032;2022-09-09T06:00:06;7.80;;;2.10;;
177;SDS011;77;48.792;9.032;2022-09-09T06:02:32;6.80;;;2.20;;
177;SDS011;77;48.792;9.032;2022-09-09T06:04:57;4.37;;;1.97;;
177;SDS011;77;48.792;9.032;2022-09-09T06:07:22;4.67;;;2.20;;
177;SDS011;77;48.792;9.032;2022-09-09T06:09:48;3.60;;;2.20;;
177;SDS011;77;48.792;9.032;2022-09-09T06:12:13;3.90;;;2.10;;
177;SDS011;77;48.792;9.032;2022-09-09T06:14:38;4.50;;;2.10;;
177;SDS011;77;48.792;9.032;2022-09-09T06:17:05;10.63;;;2.83;;
177;SDS011;77;48.792;9.032;2022-09-09T06:19:35;4.27;;;2.30;;
177;SDS011;77;48.792;9.032;2022-09-09T06:22:00;3.83;;;2.50;;
177;SDS011;77;48.792;9.032;2022-09-09T06:24:26;4.87;;;2.37;;
177;SDS011;77;48.792;9.032;2022-09-09T06:26:51;5.70;;;3.10;;
177;SDS011;77;48.792;9.032;2022-09-09T06:29:16;5.70;;;2.80;;
177;SDS011;77;48.792;9.032;2022-09-09T06:31:42;4.53;;;2.60;;
177;SDS011;77;48.792;9.032;2022-09-09T06:34:08;4.90;;;2.30;;
177;SDS011;77;48.792;9.032;2022-09-09T06:36:35;5.60;;;2.53;;
177;SDS011;77;48.792;9.032;2022-09-09T06:39:00;3.63;;;2.37;;
177;SDS011;77;48.792;9.032;2022-09-09T06:41:26;6.13;;;2.47;;
177;SDS011;77;48.792;9.032;2022-09-09T06:43:51;5.30;;;2.60;;
177;SDS011;77;48.792;9.032;2022-09-09T06:46:18;5.07;;;2.30;;
177;SDS011;77;48.792;9.032;2022-09-09T06:48:44;5.13;;;2.43;;
177;SDS011;77;48.792;9.032;2022-09-09T06:51:11;10.43;;;2.70;;
177;SDS011;77;48.792;9.032;2022-09-09T06:53:38;7.27;;;2.40;;
177;SDS011;77;48.792;9.032;2022-09-09T06:56:15;6.57;;;2.50;;
177;SDS011;77;48.792;9.032;2022-09-09T06:58:44;7.90;;;2.90;;
177;SDS011;77;48.792;9.032;2022-09-09T07:01:10;4.20;;;2.67;;
177;SDS011;77;48.792;9.032;2022-09-09T07:03:36;4.70;;;2.50;;
177;SDS011;77;48.792;9.032;2022-09-09T07:06:01;6.73;;;2.80;;
177;SDS011;77;48.792;9.032;2022-09-09T07:08:28;5.40;;;2.60;;
177;SDS011;77;48.792;9.032;2022-09-09T07:10:53;3.20;;;2.20;;
177;SDS011;77;48.792;9.032;2022-09-09T07:13:19;8.13;;;2.93;;
177;SDS011;77;48.792;9.032;2022-09-09T07:15:44;5.60;;;2.60;;
177;SDS011;77;48.792;9.032;2022-09-09T07:18:09;6.97;;;2.60;;
177;SDS011;77;48.792;9.032;2022-09-09T07:20:35;5.37;;;2.60;;
177;SDS011;77;48.792;9.032;2022-09-09T07:23:00;6.43;;;2.40;;
177;SDS011;77;48.792;9.032;2022-09-09T07:25:27;5.43;;;2.63;;
177;SDS011;77;48.792;9.032;2022-09-09T07:27:52;5.60;;;2.53;;
177;SDS011;77;48.792;9.032;2022-09-09T07:30:17;5.40;;;2.40;;
177;SDS011;77;48.792;9.032;2022-09-09T07:32:43;5.60;;;2.60;;
177;SDS011;77;48.792;9.032;2022-09-09T07:35:08;5.33;;;2.27;;
177;SDS011;77;48.792;9.032;2022-09-09T07:37:36;6.37;;;2.50;;
177;SDS011;77;48.792;9.032;2022-09-09T07:40:01;5.23;;;2.33;;
177;SDS011;77;48.792;9.032;2022-09-09T07:42:28;5.23;;;2.30;;
177;SDS011;77;48.792;9.032;2022-09-09T07:44:54;4.10;;;2.30;;
177;SDS011;77;48.792;9.032;2022-09-09T07:47:19;3.67;;;2.30;;
177;SDS011;77;48.792;9.032;2022-09-09T07:49:44;4.53;;;2.40;;
177;SDS011;77;48.792;9.032;2022-09-09T07:52:09;4.20;;;2.27;;
177;SDS011;77;48.792;9.032;2022-09-09T07:54:34;5.90;;;2.50;;
177;SDS011;77;48.792;9.032;2022-09-09T07:57:00;4.67;;;2.20;;
177;SDS011;77;48.792;9.032;2022-09-09T07:59:26;8.10;;;2.40;;
177;SDS011;77;48.792;9.032;2022-09-09T08:01:52;6.03;;;2.27;;
177;SDS011;77;48.792;9.032;2022-09-09T08:04:18;8.90;;;2.70;;
177;SDS011;77;48.792;9.032;2022-09-09T08:06:44;8.87;;;2.77;;
177;SDS011;77;48.792;9.032;2022-09-09T08:09:09;5.93;;;2.37;;
177;SDS011;77;48.792;9.032;2022-09-09T08:11:35;4.37;;;2.00;;
177;SDS011;77;48.792;9.032;2022-09-09T08:14:00;6.33;;;2.30;;
177;SDS011;77;48.792;9.032;2022-09-09T08:16:27;4.27;;;2.30;;
177;SDS011;77;48.792;9.032;2022-09-09T08:18:53;6.40;;;2.40;;
177;SDS011;77;48.792;9.032;2022-09-09T08:21:20;4.20;;;2.23;;
177;SDS011;77;48.792;9.032;2022-09-09T08:23:45;4.77;;;2.30;;
177;SDS011;77;48.792;9.032;2022-09-09T08:26:11;4.07;;;2.30;;
177;SDS011;77;48.792;9.032;2022-09-09T08:28:37;4.37;;;2.10;;
177;SDS011;77;48.792;9.032;2022-09-09T08:31:08;5.63;;;2.30;;
177;SDS011;77;48.792;9.032;2022-09-09T08:33:35;6.60;;;2.20;;
177;SDS011;77;48.792;9.032;2022-09-09T08:36:01;6.13;;;2.40;;
177;SDS011;77;48.792;9.032;2022-09-09T08:38:26;4.97;;;2.23;;
177;SDS011;77;48.792;9.032;2022-09-09T08:40:52;3.93;;;2.43;;
177;SDS011;77;48.792;9.032;2022-09-09T08:43:21;4.53;;;2.07;;
177;SDS011;77;48.792;9.032;2022-09-09T08:45:49;6.80;;;2.33;;
177;SDS011;77;48.792;9.032;2022-09-09T08:48:20;5.53;;;2.20;;
177;SDS011;77;48.792;9.032;2022-09-09T08:50:50;4.37;;;2.03;;
177;SDS011;77;48.792;9.032;2022-09-09T08:53:16;6.77;;;2.20;;
177;SDS011;77;48.792;9.032;2022-09-09T08:55:44;6.13;;;1.87;;
177;SDS011;77;48.792;9.032;2022-09-09T08:58:12;5.53;;;2.27;;
177;SDS011;77;48.792;9.032;2022-09-09T09:00:40;4.50;;;2.13;;
177;SDS011;77;48.792;9.032;2022-09-09T09:03:09;4.57;;;2.20;;
177;SDS011;77;48.792;9.032;2022-09-09T09:05:40;4.47;;;2.20;;
177;SDS011;77;48.792;9.032;2022-09-09T09:08:12;6.00;;;2.43;;
177;SDS011;77;48.792;9.032;2022-09-09T09:10:44;7.50;;;2.23;;
177;SDS011;77;48.792;9.032;2022-09-09T09:13:12;4.77;;;2.20;;
177;SDS011;77;48.792;9.032;2022-09-09T09:15:38;5.57;;;2.33;;
177;SDS011;77;48.792;9.032;2022-09-09T09:18:04;6.83;;;2.30;;
177;SDS011;77;48.792;9.032;2022-09-09T09:20:31;4.10;;;2.10;;
177;SDS011;77;48.792;9.032;2022-09-09T09:22:58;6.83;;;2.50;;
177;SDS011;77;48.792;9.032;2022-09-09T09:25:30;4.07;;;2.40;;
177;SDS011;77;48.792;9.032;2022-09-09T09:27:57;5.77;;;2.60;;
177;SDS011;77;48.792;9.032;2022-09-09T09:30:23;3.87;;;2.30;;
177;SDS011;77;48.792;9.032;2022-09-09T09:32:53;5.00;;;2.20;;
177;SDS011;77;48.792;9.032;2022-09-09T09:35:19;6.10;;;1.87;;
177;SDS011;77;48.792;9.032;2022-09-09T09:37:44;3.33;;;2.00;;
177;SDS011;77;48.792;9.032;2022-09-09T09:40:11;2.53;;;1.70;;
177;SDS011;77;48.792;9.032;2022-09-09T09:42:46;2.53;;;1.67;;
177;SDS011;77;48.792;9.032;2022-09-09T09:45:14;3.80;;;1.90;;
177;SDS011;77;48.792;9.032;2022-09-09T09:47:41;3.40;;;1.80;;
177;SDS011;77;48.792;9.032;2022-09-09T09:50:15;3.37;;;1.50;;
177;SDS011;77;48.792;9.032;2022-09-09T09:52:41;6.10;;;2.20;;
177;SDS011;77;48.792;9.032;2022-09-09T09:55:11;3.10;;;1.70;;
177;SDS011;77;48.792;9.032;2022-09-09T09:57:38;4.90;;;1.80;;
177;SDS011;77;48.792;9.032;2022-09-09T10:00:04;4.43;;;2.03;;
177;SDS011;77;48.792;9.032;2022-09-09T10:02:38;4.10;;;1.90;;
177;SDS011;77;48.792;9.032;2022-09-09T10:05:04;3.97;;;2.00;;
177;SDS011;77;48.792;9.032;2022-09-09T10:07:30;4.13;;;1.83;;
177;SDS011;77;48.792;9.032;2022-09-09T10:09:56;6.57;;;2.30;;
177;SDS011;77;48.792;9.032;2022-09-09T10:12:24;8.03;;;2.20;;
177;SDS011;77;48.792;9.032;2022-09-09T10:14:57;6.77;;;2.17;;
177;SDS011;77;48.792;9.032;2022-09-09T10:17:27;5.70;;;2.20;;
177;SDS011;77;48.792;9.032;2022-09-09T10:19:58;5.07;;;2.20;;
177;SDS011;77;48.792;9.032;2022-09-09T10:22:27;5.43;;;1.93;;
177;SDS011;77;48.792;9.032;2022-09-09T10:27:33;4.30;;;2.13;;
177;SDS011;77;48.792;9.032;2022-09-09T10:30:04;4.53;;;2.10;;
177;SDS011;77;48.792;9.032;2022-09-09T10:32:41;5.33;;;2.20;;
177;SDS011;77;48.792;9.032;2022-09-09T10:35:09;4.27;;;2.00;;
177;SDS011;77;48.792;9.032;2022-09-09T10:37:39;4.83;;;2.10;;
177;SDS011;77;48.792;9.032;2022-09-09T10:40:12;4.50;;;1.90;;
177;SDS011;77;48.792;9.032;2022-09-09T10:42:40;3.90;;;1.90;;
177;SDS011;77;48.792;9.032;2022-09-09T10:45:09;5.33;;;2.17;;
177;SDS011;77;48.792;9.032;2022-09-09T10:47:39;6.73;;;2.20;;
177;SDS011;77;48.792;9.032;2022-09-09T10:50:14;4.67;;;2.30;;
177;SDS011;77;48.792;9.032;2022-09-09T10:52:45;4.53;;;2.07;;
177;SDS011;77;48.792;9.032;2022-09-09T10:55:15;6.30;;;2.03;;
177;SDS011;77;48.792;9.032;2022-09-09T10:57:42;4.50;;;2.47;;
177;SDS011;77;48.792;9.032;2022-09-09T11:00:14;4.67;;;2.30;;
177;SDS011;77;48.792;9.032;2022-09-09T11:02:40;5.23;;;2.10;;
177;SDS011;77;48.792;9.032;2022-09-09T11:05:07;5.20;;;1.93;;
177;SDS011;77;48.792;9.032;2022-09-09T11:07:37;3.50;;;1.90;;
177;SDS011;77;48.792;9.032;2022-09-09T11:10:05;3.20;;;1.90;;
177;SDS011;77;48.792;9.032;2022-09-09T11:12:31;2.90;;;1.80;;
177;SDS011;77;48.792;9.032;2022-09-09T11:14:59;3.57;;;2.07;;
177;SDS011;77;48.792;9.032;2022-09-09T11:17:28;3.50;;;1.70;;
177;SDS011;77;48.792;9.032;2022-09-09T11:19:55;7.20;;;2.20;;
177;SDS011;77;48.792;9.032;2022-09-09T11:22:22;5.13;;;1.80;;
177;SDS011;77;48.792;9.032;2022-09-09T11:24:52;4.20;;;1.80;;
177;SDS011;77;48.792;9.032;2022-09-09T11:27:20;3.17;;;1.70;;
177;SDS011;77;48.792;9.032;2022-09-09T11:29:52;3.13;;;1.60;;
177;SDS011;77;48.792;9.032;2022-09-09T11:32:28;4.43;;;1.50;;
177;SDS011;77;48.792;9.032;2022-09-09T11:35:01;2.70;;;1.50;;
177;SDS011;77;48.792;9.032;2022-09-09T11:37:44;3.87;;;1.90;;
177;SDS011;77;48.792;9.032;2022-09-09T11:40:18;3.23;;;1.63;;
177;SDS011;77;48.792;9.032;2022-09-09T11:42:44;3.20;;;1.50;;
177;SDS011;77;48.792;9.032;2022-09-09T11:45:19;2.90;;;1.57;;
177;SDS011;77;48.792;9.032;2022-09-09T11:47:51;3.30;;;1.70;;
177;SDS011;77;48.792;9.032;2022-09-09T11:50:26;3.57;;;1.80;;
177;SDS011;77;48.792;9.032;2022-09-09T11:53:02;3.17;;;1.57;;
177;SDS011;77;48.792;9.032;2022-09-09T11:55:30;3.47;;;1.90;;
177;SDS011;77;48.792;9.032;2022-09-09T11:57:57;2.50;;;1.60;;
177;SDS011;77;48.792;9.032;2022-09-09T12:00:33;3.73;;;1.60;;
177;SDS011;77;48.792;9.032;2022-09-09T12:02:58;3.73;;;1.50;;
177;SDS011;77;48.792;9.032;2022-09-09T12:05:24;3.43;;;1.60;;
177;SDS011;77;48.792;9.032;2022-09-09T12:07:50;4.43;;;1.70;;
177;SDS011;77;48.792;9.032;2022-09-09T12:10:21;3.67;;;1.60;;
177;SDS011;77;48.792;9.032;2022-09-09T12:12:48;3.83;;;1.73;;
177;SDS011;77;48.792;9.032;2022-09-09T12:18:00;2.20;;;1.47;;
177;SDS011;77;48.792;9.032;2022-09-09T12:20:26;3.80;;;1.60;;
177;SDS011;77;48.792;9.032;2022-09-09T12:23:08;3.00;;;1.60;;
177;SDS011;77;48.792;9.032;2022-09-09T12:25:40;3.97;;;1.60;;
177;SDS011;77;48.792;9.032;2022-09-09T12:28:11;3.03;;;1.50;;
177;SDS011;77;48.792;9.032;2022-09-09T12:30:40;4.33;;;1.60;;
177;SDS011;77;48.792;9.032;2022-09-09T12:33:08;2.50;;;1.50;;
177;SDS011;77;48.792;9.032;2022-09-09T12:35:35;2.73;;;1.53;;
177;SDS011;77;48.792;9.032;2022-09-09T12:38:01;2.70;;;1.50;;
177;SDS011;77;48.792;9.032;2022-09-09T12:40:27;3.37;;;1.70;;
177;SDS011;77;48.792;9.032;2022-09-09T12:42:53;3.47;;;1.40;;
177;SDS011;77;48.792;9.032;2022-09-09T12:45:21;2.80;;;1.53;;
177;SDS011;77;48.792;9.032;2022-09-09T12:47:47;3.40;;;1.57;;
177;SDS011;77;48.792;9.032;2022-09-09T12:50:15;5.43;;;1.70;;
177;SDS011;77;48.792;9.032;2022-09-09T12:52:41;2.30;;;1.40;;
177;SDS011;77;48.792;9.032;2022-09-09T12:55:06;3.57;;;1.50;;
177;SDS011;77;48.792;9.032;2022-09-09T12:57:33;3.77;;;1.70;;
177;SDS011;77;48.792;9.032;2022-09-09T13:00:06;4.10;;;1.70;;
177;SDS011;77;48.792;9.032;2022-09-09T13:02:36;5.87;;;1.60;;
177;SDS011;77;48.792;9.032;2022-09-09T13:05:13;4.43;;;1.63;;
177;SDS011;77;48.792;9.032;2022-09-09T13:07:39;3.10;;;1.60;;
177;SDS011;77;48.792;9.032;2022-09-09T13:10:05;3.40;;;1.43;;
177;SDS011;77;48.792;9.032;2022-09-09T13:12:30;3.30;;;1.70;;
177;SDS011;77;48.792;9.032;2022-09-09T13:14:55;3.30;;;1.50;;
177;SDS011;77;48.792;9.032;2022-09-09T13:17:22;3.57;;;1.67;;
177;SDS011;77;48.792;9.032;2022-09-09T13:19:49;8.80;;;1.70;;
177;SDS011;77;48.792;9.032;2022-09-09T13:22:20;2.37;;;1.60;;
177;SDS011;77;48.792;9.032;2022-09-09T13:24:45;3.40;;;1.50;;
177;SDS011;77;48.792;9.032;2022-09-09T13:27:23;5.03;;;1.70;;
177;SDS011;77;48.792;9.032;2022-09-09T13:29:50;5.60;;;1.50;;
177;SDS011;77;48.792;9.032;2022-09-09T13:32:16;2.37;;;1.50;;
177;SDS011;77;48.792;9.032;2022-09-09T13:34:49;3.20;;;1.60;;
177;SDS011;77;48.792;9.032;2022-09-09T13:37:19;3.77;;;1.73;;
177;SDS011;77;48.792;9.032;2022-09-09T13:39:50;3.00;;;1.70;;
177;SDS011;77;48.792;9.032;2022-09-09T13:42:21;3.40;;;1.50;;
177;SDS011;77;48.792;9.032;2022-09-09T13:44:46;3.07;;;1.50;;
177;SDS011;77;48.792;9.032;2022-09-09T13:47:17;3.43;;;1.80;;
177;SDS011;77;48.792;9.032;2022-09-09T13:49:43;3.87;;;1.50;;
177;SDS011;77;48.792;9.032;2022-09-09T13:52:09;5.27;;;1.40;;
177;SDS011;77;48.792;9.032;2022-09-09T13:54:36;3.80;;;1.50;;
177;SDS011;77;48.792;9.032;2022-09-09T13:57:02;2.40;;;1.50;;
177;SDS011;77;48.792;9.032;2022-09-09T13:59:27;3.40;;;1.40;;
177;SDS011;77;48.792;9.032;2022-09-09T14:01:53;3.43;;;1.50;;
177;SDS011;77;48.792;9.032;2022-09-09T14:04:18;3.50;;;1.50;;
177;SDS011;77;48.792;9.032;2022-09-09T14:06:43;2.90;;;1.60;;
177;SDS011;77;48.792;9.032;2022-09-09T14:09:10;4.20;;;1.50;;
177;SDS011;77;48.792;9.032;2022-09-09T14:11:37;6.20;;;1.47;;
177;SDS011;77;48.792;9.032;2022-09-09T14:14:02;2.73;;;1.37;;
177;SDS011;77;48.792;9.032;2022-09-09T14:16:29;4.63;;;1.97;;
177;SDS011;77;48.792;9.032;2022-09-09T14:18:54;3.13;;;1.63;;
177;SDS011;77;48.792;9.032;2022-09-09T14:21:20;6.40;;;1.80;;
177;SDS011;77;48.792;9.032;2022-09-09T14:23:45;6.33;;;1.40;;
177;SDS011;77;48.792;9.032;2022-09-09T14:26:10;3.23;;;1.60;;
177;SDS011;77;48.792;9.032;2022-09-09T14:28:37;3.50;;;1.60;;
177;SDS011;77;48.792;9.032;2022-09-09T14:31:03;2.60;;;1.50;;
177;SDS011;77;48.792;9.032;2022-09-09T14:33:29;3.27;;;1.30;;
177;SDS011;77;48.792;9.032;2022-09-09T14:35:55;2.37;;;1.50;;
177;SDS011;77;48.792;9.032;2022-09-09T14:38:21;2.67;;;1.40;;
177;SDS011;77;48.792;9.032;2022-09-09T14:40:46;2.77;;;1.50;;
177;SDS011;77;48.792;9.032;2022-09-09T14:43:11;2.70;;;1.50;;
177;SDS011;77;48.792;9.032;2022-09-09T14:45:38;3.67;;;1.30;;
177;SDS011;77;48.792;9.032;2022-09-09T14:48:03;2.23;;;1.50;;
177;SDS011;77;48.792;9.032;2022-09-09T14:50:28;4.00;;;1.60;;
177;SDS011;77;48.792;9.032;2022-09-09T14:52:54;3.87;;;1.50;;
177;SDS011;77;48.792;9.032;2022-09-09T14:55:19;3.67;;;1.60;;
177;SDS011;77;48.792;9.032;2022-09-09T14:57:44;2.90;;;1.30;;
177;SDS011;77;48.792;9.032;2022-09-09T15:00:09;4.20;;;1.70;;
177;SDS011;77;48.792;9.032;2022-09-09T15:02:38;3.47;;;1.87;;
177;SDS011;77;48.792;9.032;2022-09-09T15:05:03;1.83;;;1.27;;
177;SDS011;77;48.792;9.032;2022-09-09T15:07:29;3.40;;;1.53;;
177;SDS011;77;48.792;9.032;2022-09-09T15:09:54;3.43;;;1.40;;
177;SDS011;77;48.792;9.032;2022-09-09T15:12:19;2.50;;;1.50;;
177;SDS011;77;48.792;9.032;2022-09-09T15:14:45;2.73;;;1.40;;
177;SDS011;77;48.792;9.032;2022-09-09T15:17:10;3.20;;;1.53;;
177;SDS011;77;48.792;9.032;2022-09-09T15:19:37;3.83;;;1.67;;
177;SDS011;77;48.792;9.032;2022-09-09T15:22:02;3.37;;;1.60;;
177;SDS011;77;48.792;9.032;2022-09-09T15:24:28;2.77;;;1.70;;
177;SDS011;77;48.792;9.032;2022-09-09T15:26:53;3.17;;;1.60;;
177;SDS011;77;48.792;9.032;2022-09-09T15:29:18;3.53;;;1.70;;
177;SDS011;77;48.792;9.032;2022-09-09T15:31:44;2.60;;;1.47;;
177;SDS011;77;48.792;9.032;2022-09-09T15:34:09;4.90;;;1.63;;
177;SDS011;77;48.792;9.032;2022-09-09T15:36:36;6.37;;;1.90;;
177;SDS011;77;48.792;9.032;2022-09-09T15:39:02;2.80;;;1.40;;
177;SDS011;77;48.792;9.032;2022-09-09T15:41:28;5.70;;;1.50;;
177;SDS011;77;48.792;9.032;2022-09-09T15:43:54;4.77;;;1.97;;
177;SDS011;77;48.792;9.032;2022-09-09T15:46:27;4.30;;;1.80;;
177;SDS011;77;48.792;9.032;2022-09-09T15:48:53;3.57;;;1.60;;
177;SDS011;77;48.792;9.032;2022-09-09T15:51:19;3.23;;;1.53;;
177;SDS011;77;48.792;9.032;2022-09-09T15:53:45;5.27;;;1.63;;
177;SDS011;77;48.792;9.032;2022-09-09T15:56:11;3.07;;;1.70;;
177;SDS011;77;48.792;9.032;2022-09-09T15:58:36;3.47;;;1.57;;
177;SDS011;77;48.792;9.032;2022-09-09T16:01:02;3.20;;;1.60;;
177;SDS011;77;48.792;9.032;2022-09-09T16:03:27;3.70;;;1.70;;
177;SDS011;77;48.792;9.032;2022-09-09T16:05:52;3.20;;;1.70;;